Time;durP1;ratioP1;P1;durP2;ratioP2;P2;SDS_P1;SDS_P2;PMS_P1;PMS_P2;Temp;Humidity;BMP_temperature;BMP_pressure;BME280_temperature;BME280_humidity;BME280_pressure;Samples;Min_cycle;Max_cycle;Signal;HPM_P1;HPM_P2
2024/03/25 00:01:34;;;;;;;;;;;;;;;3.58;93.53;95153.45;108673;1269;22525;-84
2024/03/25 00:04:01;;;;;;;;;;;;;;;3.58;94.00;95152.70;108752;1275;22542;-84
2024/03/25 00:06:27;;;;;;;;;;;;;;;3.60;93.45;95156.10;108591;1280;124513;-83
2024/03/25 00:08:53;;;;;;;;;;;;;;;3.63;93.66;95152.55;108691;1273;25416;-84
2024/03/25 00:11:20;;;;;;;;;;;;;;;3.63;94.03;95150.89;108583;1280;124568;-84
2024/03/25 00:13:46;;;;;;;;;;;;;;;3.61;94.10;95153.83;108730;1280;24226;-84
2024/03/25 00:16:12;;;;;;;;;;;;;;;3.60;93.70;95151.13;108625;1274;23129;-84
2024/03/25 00:18:38;;;;;;;;;;;;;;;3.62;93.32;95149.06;108487;1280;124462;-84
2024/03/25 00:21:05;;;;;;;;;;;;;;;3.64;93.28;95147.80;108621;1278;25422;-84
2024/03/25 00:23:31;;;;;;;;;;;;;;;3.65;93.41;95151.70;108532;1272;124885;-84
2024/03/25 00:25:57;;;;;;;;;;;;;;;3.66;93.14;95147.43;108606;1275;22523;-83
2024/03/25 00:28:24;;;;;;;;;;;;;;;3.69;92.96;95145.96;108593;1275;22589;-87
2024/03/25 00:30:50;;;;;;;;;;;;;;;3.71;93.07;95143.09;108554;1278;124422;-87
2024/03/25 00:33:17;;;;;;;;;;;;;;;3.73;93.57;95143.95;108778;1280;22559;-87
2024/03/25 00:35:45;;;;;;;;;;;;;;;3.73;93.10;95146.00;108673;1280;124528;-87
2024/03/25 00:38:12;;;;;;;;;;;;;;;3.72;93.33;95143.66;108706;1280;24971;-87
2024/03/25 00:40:38;;;;;;;;;;;;;;;3.73;93.04;95145.13;108716;1280;22661;-87
2024/03/25 00:43:04;;;;;;;;;;;;;;;3.71;93.19;95143.21;108577;1262;124440;-87
2024/03/25 00:45:31;;;;;;;;;;;;;;;3.71;92.92;95142.05;108641;1280;22510;-87
2024/03/25 00:47:57;;;;;;;;;;;;;;;3.71;92.76;95142.65;108465;1280;124592;-87
2024/03/25 00:50:23;;;;;;;;;;;;;;;3.71;93.00;95138.50;108629;1273;23158;-87
2024/03/25 00:52:49;;;;;;;;;;;;;;;3.70;92.36;95135.70;108606;1275;22746;-87
2024/03/25 00:55:16;;;;;;;;;;;;;;;3.70;92.63;95136.52;108597;1278;124353;-87
2024/03/25 00:57:43;;;;;;;;;;;;;;;3.71;92.29;95133.71;108605;1265;22642;-87
2024/03/25 01:00:10;;;;;;;;;;;;;;;3.71;92.42;95134.90;108542;1280;124609;-87
2024/03/25 01:02:37;;;;;;;;;;;;;;;3.71;92.45;95131.43;108625;1273;22499;-87
2024/03/25 01:05:05;;;;;;;;;;;;;;;3.71;92.47;95126.13;108607;1269;124551;-87
2024/03/25 01:07:31;;;;;;;;;;;;;;;3.72;92.10;95125.73;108611;1280;22528;-87
2024/03/25 01:09:58;;;;;;;;;;;;;;;3.72;91.77;95122.62;108576;1280;23210;-87
2024/03/25 01:12:25;;;;;;;;;;;;;;;3.71;91.57;95123.63;108588;1281;124468;-87
2024/03/25 01:14:52;;;;;;;;;;;;;;;3.70;91.63;95123.83;108714;1275;22471;-87
2024/03/25 01:17:18;;;;;;;;;;;;;;;3.68;91.32;95123.71;108584;1275;124633;-88
2024/03/25 01:19:44;;;;;;;;;;;;;;;3.68;91.40;95117.74;108616;1275;23832;-87
2024/03/25 01:22:10;;;;;;;;;;;;;;;3.65;91.20;95118.16;108679;1273;22571;-87
2024/03/25 01:24:37;;;;;;;;;;;;;;;3.62;91.15;95120.96;108519;1280;124784;-88
2024/03/25 01:27:03;;;;;;;;;;;;;;;3.61;90.94;95117.52;108591;1278;23815;-87
2024/03/25 01:29:30;;;;;;;;;;;;;;;3.59;90.56;95121.19;108555;1280;125163;-87
2024/03/25 01:31:59;;;;;;;;;;;;;;;3.57;90.50;95119.77;108670;1278;24162;-87
2024/03/25 01:34:25;;;;;;;;;;;;;;;3.56;90.41;95121.82;108622;1280;22461;-87
2024/03/25 01:36:54;;;;;;;;;;;;;;;3.54;90.24;95119.26;108532;1280;124608;-87
2024/03/25 01:39:21;;;;;;;;;;;;;;;3.51;90.03;95117.91;108656;1278;22662;-87
2024/03/25 01:41:47;;;;;;;;;;;;;;;3.49;90.37;95116.89;108528;1280;124403;-87
2024/03/25 01:44:13;;;;;;;;;;;;;;;3.45;90.19;95118.11;108582;1280;22524;-87
2024/03/25 01:46:39;;;;;;;;;;;;;;;3.38;90.34;95116.45;108646;1275;25413;-84
2024/03/25 01:49:06;;;;;;;;;;;;;;;3.35;90.43;95115.80;108580;1273;124484;-84
2024/03/25 01:51:32;;;;;;;;;;;;;;;3.32;90.53;95113.03;108641;1277;25403;-84
2024/03/25 01:53:59;;;;;;;;;;;;;;;3.25;90.72;95109.38;108600;1280;125086;-84
2024/03/25 01:56:25;;;;;;;;;;;;;;;3.17;90.99;95106.10;108609;1262;22538;-84
2024/03/25 01:58:51;;;;;;;;;;;;;;;3.10;91.38;95104.34;108722;1275;22523;-84
2024/03/25 02:01:18;;;;;;;;;;;;;;;3.02;91.59;95103.78;108622;1271;124210;-83
2024/03/25 02:03:44;;;;;;;;;;;;;;;3.01;91.59;95105.39;108730;1262;25227;-84
2024/03/25 02:06:12;;;;;;;;;;;;;;;2.99;91.65;95098.61;108585;1280;124561;-83
2024/03/25 02:08:42;;;;;;;;;;;;;;;2.95;92.02;95096.18;108676;1280;22507;-84
2024/03/25 02:11:08;;;;;;;;;;;;;;;2.98;91.80;95093.41;108569;1280;125021;-84
2024/03/25 02:13:37;;;;;;;;;;;;;;;2.99;91.88;95092.60;108671;1280;22575;-85
2024/03/25 02:16:03;;;;;;;;;;;;;;;3.03;91.71;95090.88;108689;1280;23264;-85
2024/03/25 02:18:30;;;;;;;;;;;;;;;3.07;91.61;95087.64;108571;1278;124783;-85
2024/03/25 02:20:57;;;;;;;;;;;;;;;3.12;91.12;95089.51;108757;1272;22516;-85
2024/03/25 02:23:23;;;;;;;;;;;;;;;3.17;90.33;95088.27;108653;1277;124592;-85
2024/03/25 02:25:50;;;;;;;;;;;;;;;3.21;89.62;95090.38;108767;1260;22544;-84
2024/03/25 02:28:17;;;;;;;;;;;;;;;3.25;89.17;95084.38;108752;1273;24192;-84
2024/03/25 02:30:43;;;;;;;;;;;;;;;3.29;88.65;95083.84;108540;1275;123922;-84
2024/03/25 02:33:09;;;;;;;;;;;;;;;3.31;88.65;95085.89;108679;1280;23814;-84
2024/03/25 02:35:36;;;;;;;;;;;;;;;3.31;87.99;95086.59;108571;1278;124039;-84
2024/03/25 02:38:03;;;;;;;;;;;;;;;3.32;88.04;95094.36;108592;1280;22785;-84
2024/03/25 02:40:29;;;;;;;;;;;;;;;3.34;88.29;95098.26;108702;1275;22541;-84
2024/03/25 02:42:56;;;;;;;;;;;;;;;3.36;88.22;95101.30;108512;1278;124376;-84
2024/03/25 02:45:22;;;;;;;;;;;;;;;3.36;88.04;95106.07;108757;1280;22544;-84
2024/03/25 02:47:49;;;;;;;;;;;;;;;3.36;88.15;95102.16;108564;1280;124573;-84
2024/03/25 02:50:16;;;;;;;;;;;;;;;3.37;88.04;95103.23;108654;1280;22594;-83
2024/03/25 02:52:42;;;;;;;;;;;;;;;3.36;88.21;95101.84;108618;1281;23820;-83
2024/03/25 02:55:08;;;;;;;;;;;;;;;3.36;88.14;95097.85;108568;1280;124631;-83
2024/03/25 02:57:35;;;;;;;;;;;;;;;3.37;87.99;95092.65;108589;1278;22506;-83
2024/03/25 03:00:02;;;;;;;;;;;;;;;3.38;87.96;95095.48;108608;1277;123720;-83
2024/03/25 03:02:28;;;;;;;;;;;;;;;3.35;88.23;95093.05;108590;1280;22666;-83
2024/03/25 03:04:54;;;;;;;;;;;;;;;3.29;88.16;95100.44;108675;1275;22536;-84
2024/03/25 03:07:21;;;;;;;;;;;;;;;3.28;88.61;95099.19;109899;1280;123654;-84
2024/03/25 03:09:47;;;;;;;;;;;;;;;3.27;88.78;95100.06;109988;1278;22398;-84
2024/03/25 03:12:13;;;;;;;;;;;;;;;3.23;88.91;95107.83;109958;1278;124006;-84
2024/03/25 03:14:39;;;;;;;;;;;;;;;3.22;88.53;95102.83;110031;1278;23156;-84
2024/03/25 03:17:06;;;;;;;;;;;;;;;3.24;88.59;95104.80;109949;1277;124512;-84
2024/03/25 03:19:32;;;;;;;;;;;;;;;3.26;88.84;95107.19;110020;1272;22468;-84
2024/03/25 03:21:58;;;;;;;;;;;;;;;3.26;88.73;95105.14;110148;1272;22374;-84
2024/03/25 03:24:24;;;;;;;;;;;;;;;3.27;88.80;95113.58;109975;1278;124975;-87
2024/03/25 03:26:52;;;;;;;;;;;;;;;3.29;88.83;95115.01;110065;1273;22444;-87
2024/03/25 03:29:18;;;;;;;;;;;;;;;3.34;88.77;95119.08;110042;1280;125067;-86
2024/03/25 03:31:44;;;;;;;;;;;;;;;3.34;88.86;95118.05;110047;1280;23114;-85
2024/03/25 03:34:11;;;;;;;;;;;;;;;3.36;88.77;95117.50;109985;1278;22392;-85
2024/03/25 03:36:37;;;;;;;;;;;;;;;3.36;89.07;95119.62;109976;1273;124284;-85
2024/03/25 03:39:03;;;;;;;;;;;;;;;3.35;89.65;95122.96;110041;1280;22413;-85
2024/03/25 03:41:29;;;;;;;;;;;;;;;3.33;89.62;95124.20;109969;1280;124751;-85
2024/03/25 03:43:56;;;;;;;;;;;;;;;3.35;89.86;95123.16;109050;1273;22467;-87
2024/03/25 03:46:22;;;;;;;;;;;;;;;3.37;90.16;95126.66;108671;1280;22472;-87
2024/03/25 03:48:48;;;;;;;;;;;;;;;3.39;90.29;95123.04;108572;1275;125473;-87
2024/03/25 03:51:14;;;;;;;;;;;;;;;3.38;90.95;95127.68;108659;1276;25896;-88
2024/03/25 03:53:40;;;;;;;;;;;;;;;3.37;91.07;95128.17;108600;1280;125244;-86
2024/03/25 03:56:07;;;;;;;;;;;;;;;3.37;91.22;95127.47;108772;1273;24724;-86
2024/03/25 03:58:34;;;;;;;;;;;;;;;3.40;91.47;95124.48;108798;1276;22536;-86
2024/03/25 04:01:00;;;;;;;;;;;;;;;3.40;92.14;95120.98;108615;1280;124397;-86
2024/03/25 04:03:26;;;;;;;;;;;;;;;3.40;92.62;95119.69;108697;1270;25913;-84
2024/03/25 04:05:53;;;;;;;;;;;;;;;3.41;92.87;95119.75;108559;1280;125102;-84
2024/03/25 04:08:19;;;;;;;;;;;;;;;3.39;93.56;95118.38;108635;1281;22537;-84
2024/03/25 04:10:46;;;;;;;;;;;;;;;3.39;93.71;95118.41;108635;1280;22504;-84
2024/03/25 04:13:12;;;;;;;;;;;;;;;3.38;94.22;95117.13;108545;1280;125172;-84
2024/03/25 04:15:39;;;;;;;;;;;;;;;3.36;95.06;95114.98;108576;1272;24235;-84
2024/03/25 04:18:06;;;;;;;;;;;;;;;3.32;94.97;95112.14;108492;1280;124609;-83
2024/03/25 04:20:38;;;;;;;;;;;;;;;3.31;95.13;95112.39;108705;1280;23161;-84
2024/03/25 04:23:06;;;;;;;;;;;;;;;3.33;95.62;95114.40;108618;1262;125574;-84
2024/03/25 04:25:33;;;;;;;;;;;;;;;3.33;96.36;95112.23;108632;1280;22500;-84
2024/03/25 04:28:00;;;;;;;;;;;;;;;3.31;96.59;95105.23;108684;1281;25372;-84
2024/03/25 04:30:26;;;;;;;;;;;;;;;3.30;96.94;95105.82;108531;1263;124911;-84
2024/03/25 04:32:53;;;;;;;;;;;;;;;3.28;97.75;95106.96;108688;1273;22481;-83
2024/03/25 04:35:19;;;;;;;;;;;;;;;3.26;97.03;95106.84;108540;1263;124566;-83
2024/03/25 04:37:45;;;;;;;;;;;;;;;3.24;97.48;95106.26;108628;1278;25161;-84
2024/03/25 04:40:14;;;;;;;;;;;;;;;3.25;97.51;95106.77;108592;1273;22911;-83
2024/03/25 04:42:41;;;;;;;;;;;;;;;3.26;97.79;95104.91;108606;1280;125173;-83
2024/03/25 04:45:07;;;;;;;;;;;;;;;3.27;98.16;95108.89;108626;1276;22541;-84
2024/03/25 04:47:33;;;;;;;;;;;;;;;3.27;98.57;95103.44;108584;1263;124609;-84
2024/03/25 04:50:00;;;;;;;;;;;;;;;3.27;98.79;95111.65;108707;1274;22507;-84
2024/03/25 04:52:26;;;;;;;;;;;;;;;3.26;98.81;95109.14;108648;1275;23843;-84
2024/03/25 04:54:52;;;;;;;;;;;;;;;3.28;99.33;95111.61;108551;1281;125157;-84
2024/03/25 04:57:18;;;;;;;;;;;;;;;3.28;98.71;95113.45;108683;1281;22518;-84
2024/03/25 04:59:45;;;;;;;;;;;;;;;3.29;99.41;95115.84;108565;1281;124697;-84
2024/03/25 05:02:12;;;;;;;;;;;;;;;3.28;99.93;95117.52;108688;1279;24191;-84
2024/03/25 05:04:38;;;;;;;;;;;;;;;3.28;99.62;95119.73;108606;1280;24980;-84
2024/03/25 05:07:04;;;;;;;;;;;;;;;3.30;99.80;95124.38;108692;1279;124856;-84
2024/03/25 05:09:31;;;;;;;;;;;;;;;3.28;99.87;95124.41;108778;1276;22641;-84
2024/03/25 05:11:57;;;;;;;;;;;;;;;3.24;99.99;95127.48;108687;1272;124494;-83
2024/03/25 05:14:23;;;;;;;;;;;;;;;3.20;100.00;95129.53;108770;1276;25403;-83
2024/03/25 05:16:52;;;;;;;;;;;;;;;3.15;100.00;95127.86;108712;1276;25195;-83
2024/03/25 05:19:18;;;;;;;;;;;;;;;3.12;100.00;95130.27;108574;1272;124895;-83
2024/03/25 05:21:44;;;;;;;;;;;;;;;3.13;100.00;95135.96;108660;1270;22536;-84
2024/03/25 05:24:11;;;;;;;;;;;;;;;3.13;100.00;95136.30;108577;1274;124714;-84
2024/03/25 05:26:37;;;;;;;;;;;;;;;3.11;100.00;95134.89;108631;1280;22535;-84
2024/03/25 05:29:03;;;;;;;;;;;;;;;3.12;100.00;95134.39;108526;1280;125239;-85
2024/03/25 05:31:30;;;;;;;;;;;;;;;3.14;100.00;95132.14;108615;1275;22570;-84
2024/03/25 05:33:57;;;;;;;;;;;;;;;3.15;100.00;95137.65;108606;1275;22525;-84
2024/03/25 05:36:23;;;;;;;;;;;;;;;3.17;100.00;95136.00;108519;1280;124524;-85
2024/03/25 05:38:49;;;;;;;;;;;;;;;3.20;100.00;95138.23;108663;1281;22693;-84
2024/03/25 05:41:16;;;;;;;;;;;;;;;3.22;100.00;95142.13;108537;1280;124787;-84
2024/03/25 05:43:42;;;;;;;;;;;;;;;3.26;100.00;95140.85;108683;1273;22534;-84
2024/03/25 05:46:08;;;;;;;;;;;;;;;3.30;100.00;95140.94;108592;1281;22561;-84
2024/03/25 05:48:35;;;;;;;;;;;;;;;3.34;100.00;95146.05;108553;1280;125542;-84
2024/03/25 05:51:01;;;;;;;;;;;;;;;3.35;100.00;95150.86;108599;1277;24992;-84
2024/03/25 05:53:28;;;;;;;;;;;;;;;3.37;100.00;95151.96;108488;1264;125231;-84
2024/03/25 05:55:55;;;;;;;;;;;;;;;3.39;100.00;95154.65;108645;1280;23733;-84
2024/03/25 05:58:21;;;;;;;;;;;;;;;3.44;100.00;95160.16;108633;1281;22911;-84
2024/03/25 06:00:48;;;;;;;;;;;;;;;3.46;100.00;95159.50;108497;1279;124618;-84
2024/03/25 06:03:14;;;;;;;;;;;;;;;3.45;100.00;95160.31;108657;1275;22473;-84
2024/03/25 06:05:41;;;;;;;;;;;;;;;3.44;100.00;95162.66;108558;1274;124807;-84
2024/03/25 06:08:07;;;;;;;;;;;;;;;3.45;100.00;95169.31;108640;1280;24093;-85
2024/03/25 06:10:37;;;;;;;;;;;;;;;3.47;100.00;95165.92;108617;1280;22506;-84
2024/03/25 06:13:04;;;;;;;;;;;;;;;3.49;100.00;95166.39;108517;1281;124927;-84
2024/03/25 06:15:30;;;;;;;;;;;;;;;3.49;100.00;95171.05;108618;1280;22504;-84
2024/03/25 06:17:56;;;;;;;;;;;;;;;3.49;100.00;95175.31;108526;1273;125038;-84
2024/03/25 06:20:22;;;;;;;;;;;;;;;3.49;100.00;95179.70;108671;1277;22570;-84
2024/03/25 06:22:50;;;;;;;;;;;;;;;3.50;100.00;95181.73;108606;1280;22548;-84
2024/03/25 06:25:17;;;;;;;;;;;;;;;3.51;100.00;95184.36;108615;1273;124822;-84
2024/03/25 06:27:43;;;;;;;;;;;;;;;3.56;100.00;95183.82;108684;1280;22525;-84
2024/03/25 06:35:44;;;;;;;;;;;;;;;3.74;100.00;95191.29;108572;1280;125242;-84
2024/03/25 06:38:11;;;;;;;;;;;;;;;3.78;100.00;95192.45;108611;1273;23257;-84
2024/03/25 06:40:37;;;;;;;;;;;;;;;3.81;100.00;95196.16;108660;1273;23799;-86
2024/03/25 06:43:04;;;;;;;;;;;;;;;3.80;100.00;95197.55;108518;1277;124662;-86
2024/03/25 06:45:30;;;;;;;;;;;;;;;3.81;100.00;95198.12;108648;1281;25477;-86
2024/03/25 06:47:57;;;;;;;;;;;;;;;3.83;100.00;95196.60;108507;1281;124721;-86
2024/03/25 06:50:24;;;;;;;;;;;;;;;3.84;100.00;95198.33;108589;1273;22586;-86
2024/03/25 06:52:50;;;;;;;;;;;;;;;3.88;100.00;95199.30;108656;1275;23261;-86
2024/03/25 06:55:22;;;;;;;;;;;;;;;3.94;100.00;95197.29;108550;1276;124645;-86
2024/03/25 06:57:48;;;;;;;;;;;;;;;4.01;100.00;95198.59;108586;1273;22485;-86
2024/03/25 07:00:15;;;;;;;;;;;;;;;4.04;100.00;95193.73;108526;1277;124763;-87
2024/03/25 07:02:41;;;;;;;;;;;;;;;4.04;100.00;95200.45;108576;1280;24251;-86
2024/03/25 07:05:07;;;;;;;;;;;;;;;4.05;100.00;95197.88;108537;1281;124880;-86
2024/03/25 07:07:34;;;;;;;;;;;;;;;4.07;100.00;95199.75;108667;1281;25389;-86
2024/03/25 07:10:00;;;;;;;;;;;;;;;4.07;100.00;95200.40;108629;1277;22523;-87
2024/03/25 07:12:27;;;;;;;;;;;;;;;4.06;100.00;95199.00;108581;1279;124759;-87
2024/03/25 07:14:54;;;;;;;;;;;;;;;4.07;100.00;95201.11;108759;1280;22528;-87
2024/03/25 07:17:21;;;;;;;;;;;;;;;4.10;100.00;95201.27;108586;1280;124808;-87
2024/03/25 07:19:48;;;;;;;;;;;;;;;4.10;100.00;95203.73;108642;1280;22539;-87
2024/03/25 07:22:14;;;;;;;;;;;;;;;4.11;100.00;95205.60;108663;1280;22462;-88
2024/03/25 07:24:40;;;;;;;;;;;;;;;4.14;100.00;95206.31;108521;1277;124576;-88
2024/03/25 07:27:08;;;;;;;;;;;;;;;4.15;100.00;95209.10;108676;1280;22476;-88
2024/03/25 07:29:34;;;;;;;;;;;;;;;4.16;100.00;95207.74;108547;1280;124709;-87
2024/03/25 07:32:01;;;;;;;;;;;;;;;4.18;100.00;95210.38;108622;1273;25928;-87
2024/03/25 07:34:27;;;;;;;;;;;;;;;4.21;100.00;95212.36;108661;1273;22585;-88
2024/03/25 07:36:53;;;;;;;;;;;;;;;4.25;100.00;95214.16;108596;1279;124746;-88
2024/03/25 07:39:23;;;;;;;;;;;;;;;4.29;100.00;95216.70;108682;1280;24730;-87
2024/03/25 07:41:50;;;;;;;;;;;;;;;4.30;100.00;95219.30;108530;1281;124590;-87
2024/03/25 07:44:16;;;;;;;;;;;;;;;4.29;100.00;95225.80;108595;1280;22592;-87
2024/03/25 07:46:43;;;;;;;;;;;;;;;4.28;100.00;95227.45;108621;1279;24162;-87
2024/03/25 07:49:09;;;;;;;;;;;;;;;4.25;100.00;95229.34;108571;1280;126714;-87
2024/03/25 07:51:35;;;;;;;;;;;;;;;4.21;100.00;95232.77;108691;1280;23448;-87
2024/03/25 07:54:04;;;;;;;;;;;;;;;4.19;100.00;95233.45;108562;1273;124569;-85
2024/03/25 07:56:32;;;;;;;;;;;;;;;4.16;100.00;95233.65;108695;1280;22460;-84
2024/03/25 07:58:59;;;;;;;;;;;;;;;4.15;100.00;95236.52;108679;1280;22470;-84
2024/03/25 08:01:26;;;;;;;;;;;;;;;4.13;100.00;95241.55;108530;1277;124475;-84
2024/03/25 08:03:52;;;;;;;;;;;;;;;4.13;100.00;95247.94;108666;1276;22462;-84
2024/03/25 08:06:21;;;;;;;;;;;;;;;4.13;100.00;95254.40;108602;1280;124543;-84
2024/03/25 08:08:47;;;;;;;;;;;;;;;4.10;100.00;95256.98;108506;1280;22497;-84
2024/03/25 08:11:13;;;;;;;;;;;;;;;4.04;100.00;95252.79;108569;1278;125367;-85
2024/03/25 08:13:39;;;;;;;;;;;;;;;4.01;100.00;95257.16;108630;1280;22511;-84
2024/03/25 08:16:06;;;;;;;;;;;;;;;3.96;100.00;95261.58;108623;1276;22529;-84
2024/03/25 08:18:33;;;;;;;;;;;;;;;3.93;100.00;95268.01;108516;1280;124835;-83
2024/03/25 08:20:59;;;;;;;;;;;;;;;3.87;100.00;95263.28;108557;1280;22464;-84
2024/03/25 08:23:25;;;;;;;;;;;;;;;3.84;100.00;95264.69;108512;1280;125234;-84
2024/03/25 08:25:52;;;;;;;;;;;;;;;3.82;100.00;95267.63;108631;1277;22518;-84
2024/03/25 08:28:18;;;;;;;;;;;;;;;3.81;100.00;95267.18;108641;1275;23283;-84
2024/03/25 08:30:45;;;;;;;;;;;;;;;3.85;100.00;95267.80;108554;1280;124647;-84
2024/03/25 08:33:11;;;;;;;;;;;;;;;3.87;100.00;95271.32;108651;1273;23167;-84
2024/03/25 08:35:38;;;;;;;;;;;;;;;3.88;100.00;95276.58;108532;1280;124822;-84
2024/03/25 08:38:04;;;;;;;;;;;;;;;3.87;100.00;95278.98;108673;1280;22460;-83
2024/03/25 08:40:30;;;;;;;;;;;;;;;3.86;100.00;95280.93;108615;1276;22503;-83
2024/03/25 08:42:57;;;;;;;;;;;;;;;3.83;100.00;95286.02;108545;1279;124638;-84
2024/03/25 08:45:23;;;;;;;;;;;;;;;3.81;100.00;95285.23;108540;1275;22482;-84
2024/03/25 08:47:50;;;;;;;;;;;;;;;3.80;100.00;95285.62;108586;1280;124640;-83
2024/03/25 08:50:16;;;;;;;;;;;;;;;3.82;100.00;95291.78;108612;1281;22462;-84
2024/03/25 08:52:43;;;;;;;;;;;;;;;3.85;100.00;95295.08;108657;1274;22539;-84
2024/03/25 08:55:09;;;;;;;;;;;;;;;3.89;100.00;95300.45;108481;1275;124949;-84
2024/03/25 08:57:35;;;;;;;;;;;;;;;3.92;100.00;95301.29;108618;1277;22539;-84
2024/03/25 09:00:03;;;;;;;;;;;;;;;3.95;100.00;95300.15;108590;1280;124577;-84
2024/03/25 09:02:30;;;;;;;;;;;;;;;3.97;100.00;95305.41;108749;1280;22528;-84
2024/03/25 09:04:56;;;;;;;;;;;;;;;4.01;100.00;95298.41;108683;1278;22674;-84
2024/03/25 09:07:23;;;;;;;;;;;;;;;4.06;100.00;95302.11;108583;1269;124539;-84
2024/03/25 09:12:34;;;;;;;;;;;;;;;4.19;100.00;95299.86;108626;1279;125106;-84
2024/03/25 09:15:00;;;;;;;;;;;;;;;4.24;100.00;95294.71;108704;1280;22564;-84
2024/03/25 09:17:27;;;;;;;;;;;;;;;4.30;100.00;95296.98;108607;1264;124999;-84
2024/03/25 09:19:53;;;;;;;;;;;;;;;4.37;100.00;95297.52;108674;1280;22704;-84
2024/03/25 09:22:20;;;;;;;;;;;;;;;4.44;100.00;95299.96;108682;1260;22670;-84
2024/03/25 09:24:46;;;;;;;;;;;;;;;4.54;100.00;95300.13;108538;1276;124691;-84
2024/03/25 09:27:13;;;;;;;;;;;;;;;4.59;100.00;95302.00;108632;1280;22625;-84
2024/03/25 09:29:40;;;;;;;;;;;;;;;4.64;100.00;95299.52;108558;1280;124908;-84
2024/03/25 09:32:07;;;;;;;;;;;;;;;4.68;100.00;95300.38;108596;1280;22537;-84
2024/03/25 09:34:33;;;;;;;;;;;;;;;4.73;100.00;95301.36;108703;1280;22642;-84
2024/03/25 09:36:59;;;;;;;;;;;;;;;4.78;100.00;95300.99;108560;1280;124563;-84
2024/03/25 09:39:25;;;;;;;;;;;;;;;4.85;100.00;95296.61;108596;1280;23620;-84
2024/03/25 09:41:53;;;;;;;;;;;;;;;4.91;100.00;95294.95;108404;1278;179638;-84
2024/03/25 09:44:19;;;;;;;;;;;;;;;4.96;100.00;95291.49;108661;1280;22473;-83
2024/03/25 09:46:46;;;;;;;;;;;;;;;5.00;100.00;95285.30;108694;1272;24396;-84
2024/03/25 09:49:12;;;;;;;;;;;;;;;5.05;100.00;95282.27;108580;1274;124688;-84
2024/03/25 09:51:38;;;;;;;;;;;;;;;5.12;100.00;95286.65;108581;1275;22522;-86
2024/03/25 09:54:04;;;;;;;;;;;;;;;5.20;100.00;95289.36;108610;1272;124579;-86
2024/03/25 09:56:31;;;;;;;;;;;;;;;5.26;100.00;95293.65;108667;1273;24033;-87
2024/03/25 09:58:57;;;;;;;;;;;;;;;5.36;100.00;95295.55;108665;1278;23270;-87
2024/03/25 10:01:24;;;;;;;;;;;;;;;5.50;100.00;95296.64;108663;1275;124842;-87
2024/03/25 10:03:51;;;;;;;;;;;;;;;5.59;100.00;95290.59;108665;1275;24217;-87
2024/03/25 10:06:17;;;;;;;;;;;;;;;5.66;100.00;95294.46;108612;1279;124569;-86
2024/03/25 10:08:44;;;;;;;;;;;;;;;5.75;100.00;95299.58;108713;1276;22521;-87
2024/03/25 10:11:11;;;;;;;;;;;;;;;5.80;100.00;95307.76;108632;1275;124805;-87
2024/03/25 10:13:37;;;;;;;;;;;;;;;5.80;100.00;95317.39;108720;1272;22549;-87
2024/03/25 10:16:04;;;;;;;;;;;;;;;5.78;100.00;95318.29;108656;1280;22518;-87
2024/03/25 10:18:31;;;;;;;;;;;;;;;5.76;100.00;95325.91;108646;1279;124576;-88
2024/03/25 10:20:57;;;;;;;;;;;;;;;5.71;100.00;95369.03;108681;1280;22608;-87
2024/03/25 10:23:25;;;;;;;;;;;;;;;5.46;98.27;95385.69;108566;1280;124744;-88
2024/03/25 10:25:52;;;;;;;;;;;;;;;5.04;97.93;95385.08;108668;1280;22542;-87
2024/03/25 10:28:18;;;;;;;;;;;;;;;4.70;98.13;95394.58;108655;1280;24829;-88
2024/03/25 10:30:45;;;;;;;;;;;;;;;4.47;99.16;95398.78;108579;1280;124448;-87
2024/03/25 10:33:12;;;;;;;;;;;;;;;4.30;99.75;95394.86;109988;1280;22448;-89
2024/03/25 10:35:39;;;;;;;;;;;;;;;4.14;99.99;95394.02;109949;1279;125105;-84
2024/03/25 10:38:06;;;;;;;;;;;;;;;4.00;99.97;95399.62;110091;1279;22381;-84
2024/03/25 10:40:33;;;;;;;;;;;;;;;3.92;100.00;95394.98;110103;1279;22393;-84
2024/03/25 10:43:02;;;;;;;;;;;;;;;3.81;100.00;95387.34;109999;1279;124558;-84
2024/03/25 10:45:29;;;;;;;;;;;;;;;3.71;100.00;95390.08;110097;1279;22568;-84
2024/03/25 10:47:57;;;;;;;;;;;;;;;3.63;100.00;95386.27;109969;1279;124625;-84
2024/03/25 10:50:24;;;;;;;;;;;;;;;3.53;100.00;95380.83;110066;1257;22374;-84
2024/03/25 10:52:50;;;;;;;;;;;;;;;3.50;100.00;95395.76;110047;1275;23175;-84
2024/03/25 10:55:17;;;;;;;;;;;;;;;3.50;100.00;95402.13;109924;1273;124410;-84
2024/03/25 10:57:43;;;;;;;;;;;;;;;3.47;100.00;95405.98;110074;1273;22385;-84
2024/03/25 11:00:09;;;;;;;;;;;;;;;3.35;100.00;95406.20;109923;1274;124739;-88
2024/03/25 11:02:36;;;;;;;;;;;;;;;3.21;100.00;95400.83;110010;1278;22373;-88
2024/03/25 11:05:02;;;;;;;;;;;;;;;3.14;100.00;95394.05;109957;1280;124798;-88
2024/03/25 11:07:30;;;;;;;;;;;;;;;3.15;100.00;95387.98;110057;1276;22391;-88
2024/03/25 11:10:07;;;;;;;;;;;;;;;3.22;100.00;95384.98;110039;1275;22450;-88
2024/03/25 11:12:36;;;;;;;;;;;;;;;3.29;100.00;95378.15;109907;1275;124948;-85
2024/03/25 11:15:03;;;;;;;;;;;;;;;3.37;100.00;95373.96;110072;1275;22386;-84
2024/03/25 11:17:30;;;;;;;;;;;;;;;3.44;100.00;95369.01;109929;1278;125004;-84
2024/03/25 11:20:06;;;;;;;;;;;;;;;3.48;100.00;95364.75;109559;1275;22533;-84
2024/03/25 11:22:33;;;;;;;;;;;;;;;3.56;100.00;95359.47;108689;1279;22509;-84
2024/03/25 11:25:06;;;;;;;;;;;;;;;3.65;100.00;95365.21;108592;1272;124744;-84
2024/03/25 11:27:36;;;;;;;;;;;;;;;3.82;100.00;95366.42;109996;1275;22439;-84
2024/03/25 11:30:04;;;;;;;;;;;;;;;4.05;100.00;95361.80;109943;1280;125277;-84
2024/03/25 11:32:30;;;;;;;;;;;;;;;4.32;100.00;95361.75;110019;1275;23148;-84
2024/03/25 11:34:56;;;;;;;;;;;;;;;4.54;100.00;95356.88;110061;1280;23102;-84
2024/03/25 11:37:23;;;;;;;;;;;;;;;4.65;100.00;95355.11;109962;1273;124344;-84
2024/03/25 11:39:49;;;;;;;;;;;;;;;4.70;100.00;95355.91;110031;1278;23236;-84
2024/03/25 11:42:15;;;;;;;;;;;;;;;4.74;100.00;95355.71;109962;1280;124839;-84
2024/03/25 11:44:43;;;;;;;;;;;;;;;4.73;100.00;95351.95;110050;1280;22385;-85
2024/03/25 11:47:09;;;;;;;;;;;;;;;4.73;100.00;95341.89;109935;1279;124755;-85
2024/03/25 11:49:39;;;;;;;;;;;;;;;4.76;100.00;95344.67;110036;1280;22368;-85
2024/03/25 11:52:06;;;;;;;;;;;;;;;4.87;100.00;95345.80;110213;1279;22385;-85
2024/03/25 11:54:32;;;;;;;;;;;;;;;4.95;100.00;95345.82;109966;1279;124867;-84
2024/03/25 11:56:58;;;;;;;;;;;;;;;4.98;100.00;95343.25;110078;1273;22483;-84
2024/03/25 11:59:25;;;;;;;;;;;;;;;4.98;100.00;95344.88;110016;1276;124740;-84
2024/03/25 12:01:51;;;;;;;;;;;;;;;5.00;100.00;95347.67;110078;1273;22513;-84
2024/03/25 12:04:18;;;;;;;;;;;;;;;5.00;100.00;95359.45;110049;1280;23016;-84
2024/03/25 12:06:44;;;;;;;;;;;;;;;4.98;100.00;95367.96;109967;1276;124763;-84
2024/03/25 12:11:56;;;;;;;;;;;;;;;4.85;100.00;95381.52;109952;1275;124522;-83
2024/03/25 12:14:22;;;;;;;;;;;;;;;4.80;100.00;95391.46;110081;1273;22413;-82
2024/03/25 12:16:50;;;;;;;;;;;;;;;4.72;100.00;95397.02;110018;1280;22367;-83
2024/03/25 12:19:18;;;;;;;;;;;;;;;4.61;100.00;95391.45;109608;1274;124844;-82
2024/03/25 12:21:45;;;;;;;;;;;;;;;4.56;100.00;95393.41;108609;1280;22549;-84
2024/03/25 12:24:11;;;;;;;;;;;;;;;4.51;100.00;95385.09;108513;1280;124624;-84
2024/03/25 12:26:38;;;;;;;;;;;;;;;4.45;100.00;95382.88;108576;1277;25416;-84
2024/03/25 12:29:05;;;;;;;;;;;;;;;4.41;100.00;95378.89;108499;1277;124699;-83
2024/03/25 12:31:31;;;;;;;;;;;;;;;4.36;100.00;95380.50;108613;1273;22663;-84
2024/03/25 12:33:58;;;;;;;;;;;;;;;4.30;100.00;95381.78;108715;1280;22529;-84
2024/03/25 12:36:26;;;;;;;;;;;;;;;4.26;100.00;95378.02;108608;1278;124549;-84
2024/03/25 12:38:56;;;;;;;;;;;;;;;4.21;100.00;95374.84;108707;1279;22514;-84
2024/03/25 12:41:23;;;;;;;;;;;;;;;4.21;100.00;95372.45;108563;1280;124857;-84
2024/03/25 12:43:50;;;;;;;;;;;;;;;4.27;100.00;95370.69;108636;1280;22521;-84
2024/03/25 12:46:16;;;;;;;;;;;;;;;4.39;100.00;95371.04;108697;1280;24264;-84